Time;durP1;ratioP1;P1;durP2;ratioP2;P2;SDS_P1;SDS_P2;PMS_P1;PMS_P2;Temp;Humidity;BMP_temperature;BMP_pressure;BME280_temperature;BME280_humidity;BME280_pressure;Samples;Min_cycle;Max_cycle;Signal;HPM_P1;HPM_P2
2022/12/27 07:57:04;;;;;;;1.98;1.25;;;;;;;2.04;84.53;97739.91;2101182;27;20568;-50
2022/12/27 07:58:06;;;;;;;5.15;1.92;;;;;;;2.09;83.82;97727.91;2098655;28;20228;-49
2022/12/27 08:00:34;;;;;;;6.97;1.67;;;;;;;2.86;83.03;97735.16;2084177;28;20560;-48
2022/12/27 08:02:56;;;;;;;7.47;1.50;;;;;;;3.24;79.44;97737.00;2080457;28;20854;-48
2022/12/27 08:03:57;;;;;;;8.55;1.40;;;;;;;3.50;79.18;97730.16;2079834;28;20292;-48
2022/12/27 08:04:59;;;;;;;2.28;1.40;;;;;;;3.77;77.43;97731.84;2078014;28;20225;-48
2022/12/27 08:06:00;;;;;;;7.03;1.65;;;;;;;3.98;76.64;97720.66;2073979;28;20201;-48
2022/12/27 08:07:13;;;;;;;4.53;1.50;;;;;;;4.10;75.96;97727.53;2071659;28;20613;-47
2022/12/27 08:08:17;;;;;;;6.88;1.88;;;;;;;4.37;74.65;97726.63;2071796;28;20232;-48
2022/12/27 08:09:26;;;;;;;10.90;3.55;;;;;;;4.50;74.21;97719.66;2069913;28;20202;-48
2022/12/27 08:10:28;;;;;;;7.00;3.50;;;;;;;4.89;72.77;97733.31;2068113;28;20228;-47
2022/12/27 08:11:29;;;;;;;14.02;8.23;;;;;;;5.14;71.77;97711.63;2072556;28;20736;-47
2022/12/27 08:12:31;;;;;;;38.95;22.60;;;;;;;5.22;70.61;97728.00;2071802;28;20227;-47
2022/12/27 08:13:33;;;;;;;50.72;22.85;;;;;;;5.28;70.94;97734.84;2075791;28;20280;-46
2022/12/27 08:14:35;;;;;;;65.22;30.98;;;;;;;5.53;70.48;97738.97;2070999;28;20748;-47
2022/12/27 08:15:38;;;;;;;41.95;23.70;;;;;;;5.73;69.67;97748.34;2071521;28;20234;-47
2022/12/27 08:16:40;;;;;;;4.95;2.92;;;;;;;6.00;69.41;97741.25;2072390;28;20748;-48
2022/12/27 08:17:41;;;;;;;10.20;1.80;;;;;;;6.15;68.73;97735.91;2071134;28;20200;-46
2022/12/27 08:18:43;;;;;;;3.97;1.10;;;;;;;6.17;67.97;97741.97;2069134;28;20550;-47
2022/12/27 08:19:45;;;;;;;5.82;1.48;;;;;;;6.36;66.86;97732.25;2069299;28;20289;-46
2022/12/27 08:20:47;;;;;;;5.25;1.30;;;;;;;6.51;66.40;97733.84;2070204;28;20194;-47
2022/12/27 08:21:49;;;;;;;1.95;1.08;;;;;;;6.60;66.17;97732.00;2069626;28;20667;-49
2022/12/27 08:22:50;;;;;;;3.60;1.30;;;;;;;6.41;66.08;97736.53;2067337;28;20554;-48
2022/12/27 08:23:52;;;;;;;13.55;1.67;;;;;;;6.34;66.33;97730.56;2072065;28;20198;-47
2022/12/27 08:24:55;;;;;;;2.35;1.33;;;;;;;6.54;65.94;97733.78;2074452;28;20247;-47
2022/12/27 08:25:56;;;;;;;3.88;1.63;;;;;;;6.60;65.72;97730.28;2065136;28;20207;-48
2022/12/27 08:26:57;;;;;;;3.85;1.40;;;;;;;6.67;65.77;97723.28;2071042;28;20647;-48
2022/12/27 08:28:07;;;;;;;5.60;1.55;;;;;;;6.96;65.22;97722.91;2072668;28;20201;-46
2022/12/27 08:29:08;;;;;;;3.33;1.60;;;;;;;7.25;63.75;97734.66;2071145;28;20205;-47
2022/12/27 08:30:11;;;;;;;3.08;1.23;;;;;;;7.21;63.30;97727.75;2070153;28;20891;-47
2022/12/27 08:31:13;;;;;;;5.30;1.20;;;;;;;7.12;63.52;97735.69;2070273;28;20221;-47
2022/12/27 08:32:15;;;;;;;2.03;1.20;;;;;;;7.06;63.65;97741.84;2071016;28;20248;-47
2022/12/27 08:33:16;;;;;;;3.67;1.42;;;;;;;7.39;63.25;97737.06;2069118;28;20213;-47
2022/12/27 08:34:18;;;;;;;3.63;1.38;;;;;;;7.57;63.17;97740.22;2065704;28;20198;-48
2022/12/27 08:35:19;;;;;;;3.78;1.20;;;;;;;7.55;62.54;97742.88;2074693;28;20283;-48
2022/12/27 08:36:41;;;;;;;2.60;1.30;;;;;;;7.61;62.63;97734.13;2072415;28;20209;-46
2022/12/27 08:37:56;;;;;;;5.38;2.17;;;;;;;7.70;62.38;97740.94;2069031;28;20202;-49
2022/12/27 08:38:57;;;;;;;26.95;15.55;;;;;;;7.49;62.41;97740.34;2071113;28;20209;-46
2022/12/27 08:39:58;;;;;;;144.07;70.63;;;;;;;7.58;62.21;97736.75;2071772;28;20573;-49
2022/12/27 08:41:03;;;;;;;95.95;49.88;;;;;;;7.76;61.69;97740.84;2068650;28;20203;-46
2022/12/27 08:42:05;;;;;;;7.43;3.55;;;;;;;7.31;62.70;97738.88;2068967;28;20273;-48
2022/12/27 08:43:07;;;;;;;6.10;2.15;;;;;;;7.52;62.72;97735.13;2071720;28;20284;-47
2022/12/27 08:44:09;;;;;;;4.75;1.73;;;;;;;7.67;62.08;97731.44;2067568;28;20922;-47
2022/12/27 08:45:10;;;;;;;9.43;2.10;;;;;;;7.27;63.24;97739.81;2068412;28;20264;-47
2022/12/27 08:46:13;;;;;;;5.15;1.63;;;;;;;7.30;63.15;97734.56;2069889;28;20229;-48
2022/12/27 08:47:14;;;;;;;3.72;1.20;;;;;;;7.58;62.81;97732.44;2069760;28;20794;-47
2022/12/27 08:48:15;;;;;;;4.80;1.85;;;;;;;7.42;62.66;97742.19;2071170;28;20194;-47
2022/12/27 08:49:17;;;;;;;4.25;1.88;;;;;;;7.84;62.55;97737.19;2072688;28;20885;-47
2022/12/27 08:50:19;;;;;;;4.50;1.70;;;;;;;7.95;62.27;97733.59;2072628;28;20220;-48
2022/12/27 08:51:20;;;;;;;4.55;1.60;;;;;;;7.81;61.56;97729.47;2072016;28;20197;-47
2022/12/27 08:52:38;;;;;;;6.40;1.50;;;;;;;7.61;62.58;97734.13;2072081;28;20252;-47
2022/12/27 08:53:40;;;;;;;8.48;1.90;;;;;;;7.73;61.92;97740.88;2070478;28;20243;-47
2022/12/27 08:54:41;;;;;;;5.35;1.63;;;;;;;7.82;61.61;97739.00;2069837;28;20285;-47
2022/12/27 08:55:43;;;;;;;5.50;1.80;;;;;;;7.78;62.17;97739.94;2072440;28;20208;-49
2022/12/27 08:56:44;;;;;;;5.22;1.83;;;;;;;7.35;62.66;97733.63;2073075;28;20206;-48
2022/12/27 08:57:45;;;;;;;3.92;1.85;;;;;;;7.38;63.01;97731.84;2074454;28;20229;-48
2022/12/27 08:58:48;;;;;;;5.10;1.80;;;;;;;7.51;63.14;97738.59;2072886;28;20541;-47
2022/12/27 08:59:49;;;;;;;2.83;1.70;;;;;;;7.21;63.87;97722.56;2073763;28;20229;-47
2022/12/27 09:00:51;;;;;;;6.30;2.45;;;;;;;7.19;63.79;97730.38;2070811;28;20738;-47
2022/12/27 09:01:52;;;;;;;4.10;1.70;;;;;;;7.27;63.61;97729.44;2072861;28;20198;-47
2022/12/27 09:02:54;;;;;;;6.28;2.00;;;;;;;6.89;65.24;97738.59;2071836;28;20272;-47
2022/12/27 09:03:55;;;;;;;7.55;1.42;;;;;;;6.49;64.96;97740.78;2067919;28;20201;-47
2022/12/27 09:04:57;;;;;;;4.63;1.85;;;;;;;6.26;66.82;97743.63;2069937;28;20260;-48
2022/12/27 09:06:14;;;;;;;4.35;1.83;;;;;;;6.90;65.50;97735.97;2071488;28;20208;-46
2022/12/27 09:07:15;;;;;;;8.23;1.85;;;;;;;7.07;65.09;97737.50;2072012;28;20201;-47
2022/12/27 09:08:17;;;;;;;3.03;1.67;;;;;;;7.45;63.72;97733.50;2071444;28;20205;-47
2022/12/27 09:09:18;;;;;;;7.22;2.05;;;;;;;7.91;62.64;97743.19;2071124;28;20254;-47
2022/12/27 09:10:22;;;;;;;5.18;1.83;;;;;;;7.80;62.16;97745.09;2069036;28;20243;-47
2022/12/27 09:11:26;;;;;;;8.18;1.95;;;;;;;7.88;62.18;97751.03;2073083;28;20210;-48
2022/12/27 09:12:27;;;;;;;5.72;2.28;;;;;;;7.57;61.98;97745.44;2067344;28;20229;-47
2022/12/27 09:13:29;;;;;;;6.30;2.40;;;;;;;7.98;62.53;97747.38;2067143;28;20651;-47
2022/12/27 09:14:30;;;;;;;5.05;2.03;;;;;;;7.63;61.90;97743.63;2067069;28;20195;-48
2022/12/27 09:15:32;;;;;;;12.25;2.53;;;;;;;7.71;62.75;97750.41;2066976;28;20206;-47
2022/12/27 09:16:34;;;;;;;8.32;2.40;;;;;;;7.34;63.60;97747.50;2064207;28;20285;-47
2022/12/27 09:17:36;;;;;;;8.27;1.98;;;;;;;7.96;62.68;97749.16;2067242;28;20206;-48
2022/12/27 09:18:38;;;;;;;4.85;2.00;;;;;;;8.41;61.25;97753.59;2062798;28;20215;-47
2022/12/27 09:19:39;;;;;;;6.60;2.03;;;;;;;8.42;60.61;97749.25;2063640;28;20207;-47
2022/12/27 09:20:41;;;;;;;6.47;2.05;;;;;;;8.21;60.70;97756.53;2065680;28;20217;-48
2022/12/27 09:21:42;;;;;;;3.72;1.90;;;;;;;8.12;60.98;97759.31;2066719;28;20637;-47
2022/12/27 09:22:44;;;;;;;9.85;2.10;;;;;;;8.06;61.23;97752.44;2065239;28;20203;-47
2022/12/27 09:23:46;;;;;;;7.53;2.15;;;;;;;8.48;60.38;97754.34;2066000;28;20870;-47
2022/12/27 09:24:48;;;;;;;9.27;2.72;;;;;;;8.63;59.25;97748.88;2068066;28;20265;-47
2022/12/27 09:25:49;;;;;;;6.25;1.65;;;;;;;8.31;60.34;97763.28;2067270;28;20242;-47
2022/12/27 09:26:50;;;;;;;5.05;1.33;;;;;;;8.28;60.41;97762.50;2063983;28;20197;-46
2022/12/27 09:27:52;;;;;;;4.72;1.00;;;;;;;8.08;61.33;97760.25;2064804;28;20207;-47
2022/12/27 09:28:55;;;;;;;5.97;1.30;;;;;;;7.50;62.83;97761.16;2064587;28;20228;-48
2022/12/27 09:29:56;;;;;;;3.28;1.42;;;;;;;7.45;62.85;97759.47;2063622;28;20232;-47
2022/12/27 09:30:57;;;;;;;2.50;1.10;;;;;;;7.14;63.73;97763.34;2067969;28;20223;-48
2022/12/27 09:31:59;;;;;;;3.95;1.25;;;;;;;6.78;63.75;97764.66;2064230;28;20209;-49
2022/12/27 09:33:00;;;;;;;9.82;1.50;;;;;;;6.46;64.41;97766.75;2064479;28;20226;-48
2022/12/27 09:34:02;;;;;;;6.80;1.27;;;;;;;6.45;65.69;97770.22;2062868;28;20196;-47
2022/12/27 09:35:03;;;;;;;2.65;1.13;;;;;;;5.84;66.85;97762.09;2065084;28;20222;-48
2022/12/27 09:36:14;;;;;;;4.28;1.30;;;;;;;6.12;67.21;97755.84;2063299;28;20208;-48
2022/12/27 09:37:16;;;;;;;9.18;2.30;;;;;;;6.29;66.41;97769.50;2068968;28;20252;-48
2022/12/27 09:38:17;;;;;;;6.78;1.55;;;;;;;6.11;66.76;97764.50;2065501;28;20209;-49
2022/12/27 09:39:18;;;;;;;6.68;1.75;;;;;;;6.19;66.20;97773.91;2068096;28;21113;-49
2022/12/27 09:40:20;;;;;;;5.22;1.63;;;;;;;6.31;66.43;97767.78;2064795;28;20226;-48
2022/12/27 09:41:39;;;;;;;3.67;1.45;;;;;;;6.56;65.47;97764.91;2063776;28;20250;-48
2022/12/27 09:43:08;;;;;;;4.97;1.65;;;;;;;6.39;67.00;97767.69;2064773;28;20213;-48
2022/12/27 09:44:33;;;;;;;3.40;1.30;;;;;;;6.46;65.94;97763.28;2063488;28;20716;-48
2022/12/27 09:45:41;;;;;;;2.25;1.10;;;;;;;6.16;67.18;97762.72;2061899;28;20240;-47
2022/12/27 09:47:09;;;;;;;4.70;1.30;;;;;;;5.99;67.48;97753.38;2065010;28;20878;-47
2022/12/27 09:48:34;;;;;;;4.25;0.93;;;;;;;6.41;66.41;97757.28;2063008;28;20246;-49
2022/12/27 09:49:40;;;;;;;5.18;1.50;;;;;;;6.03;66.75;97755.06;2062308;28;20204;-49
2022/12/27 09:50:54;;;;;;;4.93;1.20;;;;;;;6.41;66.17;97762.47;2066968;28;20257;-47
2022/12/27 09:52:03;;;;;;;3.70;1.10;;;;;;;6.45;66.25;97753.78;2065702;28;20221;-47
2022/12/27 09:53:16;;;;;;;3.85;1.50;;;;;;;6.60;65.71;97757.94;2063575;28;20233;-47
2022/12/27 09:54:26;;;;;;;5.90;1.10;;;;;;;6.64;65.12;97757.03;2063154;28;20195;-47
2022/12/27 09:55:45;;;;;;;4.03;1.50;;;;;;;6.90;64.42;97761.94;2063331;28;20680;-48
2022/12/27 09:56:47;;;;;;;2.92;1.15;;;;;;;6.97;63.84;97741.94;2066846;28;20665;-48
2022/12/27 09:58:32;;;;;;;6.57;1.05;;;;;;;7.22;64.74;97746.81;2066724;28;20230;-47
2022/12/27 09:59:43;;;;;;;6.88;1.40;;;;;;;7.72;63.35;97746.94;2062499;28;20210;-47
2022/12/27 10:00:45;;;;;;;2.33;1.00;;;;;;;7.95;62.88;97746.59;2067382;28;20669;-47
2022/12/27 10:01:47;;;;;;;5.90;1.30;;;;;;;8.24;60.96;97740.00;2066678;28;20202;-47
2022/12/27 10:02:50;;;;;;;1.73;0.90;;;;;;;8.46;61.13;97745.72;2064722;28;20251;-47
2022/12/27 10:03:52;;;;;;;8.90;1.13;;;;;;;8.93;60.30;97736.13;2064775;28;20209;-47
2022/12/27 10:04:58;;;;;;;2.85;0.93;;;;;;;9.18;58.91;97730.41;2065169;28;20235;-47
2022/12/27 10:06:35;;;;;;;6.35;1.10;;;;;;;9.42;58.28;97739.41;2068894;28;20203;-47
2022/12/27 10:07:54;;;;;;;6.97;1.65;;;;;;;10.02;57.21;97741.47;2062303;28;20649;-47
2022/12/27 10:09:24;;;;;;;4.85;1.80;;;;;;;9.85;56.49;97734.09;2067458;28;20199;-48
2022/12/27 10:10:35;;;;;;;9.38;2.22;;;;;;;10.12;56.82;97736.00;2063096;28;20232;-48
2022/12/27 10:12:00;;;;;;;7.13;2.08;;;;;;;10.94;54.19;97735.59;2064427;28;20212;-47
2022/12/27 10:13:07;;;;;;;5.22;2.35;;;;;;;11.34;53.61;97739.63;2057463;28;20209;-47
2022/12/27 10:14:20;;;;;;;5.80;2.30;;;;;;;11.24;53.56;97739.06;2066728;28;20208;-48
2022/12/27 10:15:45;;;;;;;4.63;1.33;;;;;;;10.95;53.54;97748.59;2065833;28;20237;-47
2022/12/27 10:17:00;;;;;;;7.10;1.65;;;;;;;10.52;54.62;97739.34;2063168;28;20665;-49
2022/12/27 10:18:33;;;;;;;5.82;1.58;;;;;;;10.45;54.84;97740.44;2065564;28;20666;-48
2022/12/27 10:19:48;;;;;;;4.53;1.63;;;;;;;10.94;54.11;97740.81;2064239;28;20220;-47
2022/12/27 10:21:11;;;;;;;6.07;1.30;;;;;;;10.87;54.68;97734.91;2062831;28;20230;-47
2022/12/27 10:22:21;;;;;;;5.00;1.20;;;;;;;10.89;54.26;97727.03;2065453;28;20198;-49
2022/12/27 10:23:28;;;;;;;3.85;1.33;;;;;;;10.75;54.08;97727.41;2065719;28;20202;-47
2022/12/27 10:25:01;;;;;;;4.05;1.50;;;;;;;10.86;54.07;97724.50;2066607;28;20199;-48
2022/12/27 10:26:14;;;;;;;5.88;1.30;;;;;;;10.59;54.66;97713.94;2057534;28;20199;-48
2022/12/27 10:27:25;;;;;;;4.47;1.20;;;;;;;10.92;54.38;97719.09;2066077;28;20234;-47
2022/12/27 10:28:37;;;;;;;5.80;2.00;;;;;;;11.01;54.19;97700.53;2063611;28;20850;-48
2022/12/27 10:29:39;;;;;;;5.75;2.78;;;;;;;10.98;54.67;97707.59;2063554;28;20208;-48
2022/12/27 10:30:42;;;;;;;5.20;1.90;;;;;;;11.41;53.86;97715.03;2063724;28;20233;-48
2022/12/27 10:31:44;;;;;;;5.40;2.15;;;;;;;11.76;53.06;97712.19;2059341;28;20209;-47
2022/12/27 10:32:47;;;;;;;5.28;1.65;;;;;;;12.36;51.87;97715.44;2061753;28;20218;-47
2022/12/27 10:33:50;;;;;;;3.85;1.67;;;;;;;12.34;51.42;97712.03;2059745;28;20203;-47
2022/12/27 10:34:55;;;;;;;5.78;2.10;;;;;;;11.40;53.30;97709.81;2061166;28;20708;-48
2022/12/27 10:35:57;;;;;;;2.67;1.33;;;;;;;11.64;52.86;97713.41;2063713;28;20199;-48
2022/12/27 10:36:59;;;;;;;8.40;1.80;;;;;;;11.74;53.00;97716.59;2066810;28;20764;-47
2022/12/27 10:38:00;;;;;;;4.32;1.20;;;;;;;12.19;52.23;97713.41;2064653;28;20241;-47
2022/12/27 10:39:09;;;;;;;7.38;1.70;;;;;;;11.67;52.54;97712.47;2063919;28;20201;-48
2022/12/27 10:40:17;;;;;;;4.80;1.40;;;;;;;11.66;52.87;97716.00;2061770;28;20239;-47
2022/12/27 10:41:51;;;;;;;3.55;1.08;;;;;;;10.45;54.10;97720.38;2066044;28;20254;-48
2022/12/27 10:42:52;;;;;;;5.43;1.00;;;;;;;10.60;55.52;97726.94;2049661;28;20679;-47
2022/12/27 10:43:54;;;;;;;4.20;1.00;;;;;;;11.26;54.51;97720.69;2061116;28;21018;-49
2022/12/27 10:45:23;;;;;;;6.25;1.50;;;;;;;11.28;53.38;97722.34;2066604;28;20254;-47
2022/12/27 10:46:27;;;;;;;3.55;1.45;;;;;;;11.98;52.25;97716.75;2064008;28;20256;-48
2022/12/27 10:47:33;;;;;;;4.68;1.17;;;;;;;12.62;51.13;97710.19;2066226;28;20650;-47
2022/12/27 10:48:35;;;;;;;2.60;1.30;;;;;;;13.05;50.00;97717.31;2065206;28;20237;-50
2022/12/27 10:50:10;;;;;;;5.18;1.63;;;;;;;13.27;49.45;97710.38;2061892;28;20311;-49
2022/12/27 10:51:12;;;;;;;3.25;1.33;;;;;;;12.93;49.61;97712.53;2064653;28;20205;-47
2022/12/27 10:52:22;;;;;;;4.60;1.30;;;;;;;13.16;49.58;97709.03;2063724;28;20225;-48
2022/12/27 10:53:28;;;;;;;6.55;1.30;;;;;;;13.65;48.93;97714.19;2062926;28;20199;-47
2022/12/27 10:54:30;;;;;;;3.17;1.00;;;;;;;13.95;48.73;97710.38;2061969;28;20256;-48
2022/12/27 10:55:34;;;;;;;8.45;1.23;;;;;;;14.28;47.96;97709.88;2063300;28;20229;-47
2022/12/27 10:56:40;;;;;;;3.17;1.23;;;;;;;14.34;47.44;97714.84;2064542;28;20198;-47
2022/12/27 10:57:41;;;;;;;7.75;1.25;;;;;;;14.40;47.42;97711.09;2066071;28;20206;-48
2022/12/27 10:58:48;;;;;;;3.05;1.20;;;;;;;14.29;47.75;97701.91;2063286;28;20234;-48
2022/12/27 11:00:21;;;;;;;8.65;1.20;;;;;;;14.39;47.09;97718.13;2060057;28;20230;-47
2022/12/27 11:01:28;;;;;;;3.38;0.93;;;;;;;13.50;47.71;97710.38;2066621;28;20214;-48
2022/12/27 11:02:30;;;;;;;4.78;1.25;;;;;;;13.16;48.85;97703.78;2064307;28;20726;-48
2022/12/27 11:03:31;;;;;;;6.40;1.38;;;;;;;13.34;48.86;97707.47;2061008;28;20281;-48
2022/12/27 11:04:33;;;;;;;4.78;1.00;;;;;;;13.55;48.78;97707.59;2058924;28;20202;-47
2022/12/27 11:05:35;;;;;;;4.72;1.42;;;;;;;13.06;49.06;97712.94;2071994;28;20657;-48
2022/12/27 11:06:38;;;;;;;5.72;1.13;;;;;;;12.76;50.07;97707.94;2071862;28;20197;-48
2022/12/27 11:07:40;;;;;;;13.57;1.55;;;;;;;12.55;50.48;97715.63;2069655;28;20202;-48
2022/12/27 11:08:41;;;;;;;4.53;1.13;;;;;;;12.50;50.09;97714.94;2067393;28;20194;-49
2022/12/27 11:09:44;;;;;;;4.60;1.40;;;;;;;12.27;50.87;97725.38;2066215;28;20552;-49
2022/12/27 11:11:24;;;;;;;5.70;1.40;;;;;;;12.21;51.48;97715.97;2061957;28;20209;-48
2022/12/27 11:12:31;;;;;;;5.22;1.25;;;;;;;11.65;51.96;97717.75;2067187;28;20191;-48
2022/12/27 11:13:32;;;;;;;6.20;1.48;;;;;;;11.72;52.15;97721.88;2065870;28;20209;-47
2022/12/27 11:14:36;;;;;;;5.80;1.00;;;;;;;12.02;52.21;97719.19;2066163;28;20681;-48
2022/12/27 11:15:41;;;;;;;9.50;1.48;;;;;;;11.84;51.98;97710.16;2065218;28;20189;-48
2022/12/27 11:16:44;;;;;;;10.32;1.50;;;;;;;11.99;52.05;97721.91;2067248;28;20199;-48
2022/12/27 11:17:52;;;;;;;5.85;1.20;;;;;;;12.33;51.53;97725.16;2065144;28;20209;-48
2022/12/27 11:18:57;;;;;;;3.75;1.05;;;;;;;11.73;52.79;97718.38;2066191;28;20209;-47
2022/12/27 11:20:05;;;;;;;5.68;1.20;;;;;;;12.16;52.28;97718.72;2066891;28;20256;-47
2022/12/27 11:21:12;;;;;;;4.13;1.00;;;;;;;11.62;52.41;97717.00;2063501;28;20233;-48
2022/12/27 11:22:25;;;;;;;5.53;1.33;;;;;;;11.57;53.36;97719.78;2066898;28;20201;-47
2022/12/27 11:23:34;;;;;;;4.72;0.93;;;;;;;11.74;53.08;97713.97;2068717;28;20194;-48
2022/12/27 11:24:41;;;;;;;3.70;1.00;;;;;;;12.00;52.24;97718.41;2063553;28;20206;-47
2022/12/27 11:25:53;;;;;;;4.93;1.33;;;;;;;11.99;52.32;97718.47;2061465;28;20205;-48
2022/12/27 11:27:00;;;;;;;9.40;1.48;;;;;;;11.14;52.97;97721.09;2060569;28;20202;-48
2022/12/27 11:28:17;;;;;;;4.47;1.40;;;;;;;11.51;53.80;97720.81;2065403;28;20199;-48
2022/12/27 11:29:23;;;;;;;9.07;1.52;;;;;;;11.56;53.25;97712.81;2064066;28;20584;-47
2022/12/27 11:30:31;;;;;;;3.95;1.10;;;;;;;11.65;52.43;97717.75;2062716;28;21025;-48
2022/12/27 11:31:39;;;;;;;9.05;1.40;;;;;;;11.77;51.68;97722.59;2066570;28;20676;-47
2022/12/27 11:32:44;;;;;;;3.88;1.08;;;;;;;11.43;52.48;97720.19;2062647;28;20871;-47
2022/12/27 11:33:58;;;;;;;5.35;1.10;;;;;;;11.40;52.88;97715.91;2064838;28;20249;-48
2022/12/27 11:34:59;;;;;;;7.50;1.50;;;;;;;11.54;52.15;97725.94;2062374;28;20228;-48
2022/12/27 11:36:01;;;;;;;3.90;1.30;;;;;;;10.90;53.24;97719.13;2064184;28;20638;-48
2022/12/27 11:37:13;;;;;;;14.38;1.55;;;;;;;10.71;54.27;97728.41;2068813;28;20206;-48
2022/12/27 11:38:32;;;;;;;9.70;1.50;;;;;;;10.93;53.45;97726.91;2064110;28;20281;-48
2022/12/27 11:40:19;;;;;;;6.93;2.08;;;;;;;10.52;54.65;97715.00;2065954;28;20198;-48
2022/12/27 11:41:36;;;;;;;5.57;1.88;;;;;;;10.45;54.24;97725.59;2061458;28;20209;-47
2022/12/27 11:42:42;;;;;;;10.90;1.45;;;;;;;9.35;57.41;97729.16;2063530;28;20229;-48
2022/12/27 11:43:52;;;;;;;7.70;1.25;;;;;;;9.26;57.25;97712.81;2065008;28;20203;-48
2022/12/27 11:45:02;;;;;;;8.27;1.42;;;;;;;9.46;57.74;97725.41;2060810;28;20225;-48
2022/12/27 11:46:12;;;;;;;9.70;1.83;;;;;;;9.57;57.96;97727.78;2064870;28;20202;-47
2022/12/27 11:47:32;;;;;;;5.45;1.38;;;;;;;9.04;58.75;97733.31;2062780;28;20221;-48
2022/12/27 11:48:39;;;;;;;9.20;1.50;;;;;;;9.09;59.03;97725.38;2062920;28;20570;-47
2022/12/27 11:49:56;;;;;;;14.43;2.10;;;;;;;8.89;60.13;97723.19;2068052;28;20210;-47
2022/12/27 11:51:31;;;;;;;11.90;1.60;;;;;;;8.80;60.03;97732.91;2067018;28;20533;-47
2022/12/27 11:52:52;;;;;;;5.70;1.75;;;;;;;8.99;59.51;97729.94;2062781;28;21065;-47
2022/12/27 11:54:09;;;;;;;11.80;2.47;;;;;;;8.90;60.06;97732.72;2062011;28;20707;-50
2022/12/27 11:55:26;;;;;;;9.20;1.58;;;;;;;8.61;60.32;97731.56;2061598;28;20223;-48
2022/12/27 11:56:29;;;;;;;6.45;1.00;;;;;;;8.26;61.08;97720.88;2063968;28;20202;-47
2022/12/27 11:58:14;;;;;;;6.85;1.23;;;;;;;8.24;61.84;97732.22;2062645;28;20203;-47
2022/12/27 11:59:30;;;;;;;4.65;1.30;;;;;;;8.20;62.14;97725.34;2051617;28;20623;-49
2022/12/27 12:00:45;;;;;;;7.65;1.25;;;;;;;8.08;62.43;97722.06;2066401;28;20578;-48
2022/12/27 12:02:06;;;;;;;3.85;1.10;;;;;;;8.14;62.31;97728.94;2067949;28;20209;-48
2022/12/27 12:03:33;;;;;;;6.45;1.13;;;;;;;8.23;62.57;97727.88;2066448;28;20645;-48
2022/12/27 12:04:50;;;;;;;5.70;1.50;;;;;;;7.33;65.44;97717.19;2065087;28;20718;-47
2022/12/27 12:06:10;;;;;;;2.60;0.90;;;;;;;7.55;64.98;97727.28;2059874;28;20706;-48
2022/12/27 12:07:47;;;;;;;5.53;1.35;;;;;;;7.74;64.39;97722.63;2065640;28;20195;-47
2022/12/27 12:09:17;;;;;;;14.60;1.50;;;;;;;7.76;64.32;97720.88;2061361;28;20206;-47
2022/12/27 12:10:44;;;;;;;5.60;0.93;;;;;;;7.65;64.91;97723.63;2065659;28;20218;-48
2022/12/27 12:11:45;;;;;;;10.30;1.27;;;;;;;7.52;65.21;97714.34;2065189;28;20202;-48
2022/12/27 12:13:16;;;;;;;6.32;1.30;;;;;;;7.54;65.21;97720.34;2063303;28;20226;-47
2022/12/27 12:14:34;;;;;;;3.65;1.10;;;;;;;7.63;64.64;97721.94;2065382;28;20205;-48
2022/12/27 12:16:12;;;;;;;2.50;1.08;;;;;;;7.22;65.61;97719.09;2064107;28;20329;-47
2022/12/27 12:17:50;;;;;;;7.68;1.42;;;;;;;7.39;65.63;97723.19;2066918;28;20286;-47
2022/12/27 12:19:13;;;;;;;3.88;1.23;;;;;;;7.29;66.22;97718.13;2056973;28;20199;-47
2022/12/27 12:20:39;;;;;;;7.63;1.85;;;;;;;6.96;67.14;97722.91;2059188;28;20254;-47
2022/12/27 12:22:04;;;;;;;5.93;1.10;;;;;;;6.98;67.77;97715.97;2063791;28;20205;-47
2022/12/27 12:23:17;;;;;;;4.28;1.23;;;;;;;7.19;67.27;97716.53;2064616;28;20198;-47
2022/12/27 12:24:33;;;;;;;5.93;1.65;;;;;;;7.47;66.84;97718.75;2063838;28;20233;-47
2022/12/27 12:26:09;;;;;;;6.22;1.20;;;;;;;7.22;67.06;97716.50;2068261;28;20221;-47
2022/12/27 12:27:21;;;;;;;10.73;1.65;;;;;;;6.99;67.65;97722.84;2063754;28;20740;-47
2022/12/27 12:28:34;;;;;;;6.85;1.42;;;;;;;7.09;67.59;97717.56;2067977;28;20198;-48
2022/12/27 12:30:33;;;;;;;7.30;1.10;;;;;;;6.82;67.91;97714.44;2068279;28;20236;-49
2022/12/27 12:31:54;;;;;;;3.50;1.30;;;;;;;6.90;67.85;97716.94;2069196;28;20289;-47
2022/12/27 12:33:18;;;;;;;8.65;1.15;;;;;;;6.88;67.87;97713.50;2061738;28;20231;-48
2022/12/27 12:34:59;;;;;;;6.78;2.10;;;;;;;7.21;67.65;97719.13;2066081;28;20206;-47
2022/12/27 12:36:28;;;;;;;5.05;1.38;;;;;;;7.75;66.42;97716.56;2067073;28;20673;-48
2022/12/27 12:37:58;;;;;;;7.80;1.30;;;;;;;7.99;65.58;97720.50;2065769;28;20245;-47
2022/12/27 12:39:10;;;;;;;6.60;1.10;;;;;;;7.96;65.13;97712.75;2065364;28;20217;-47
2022/12/27 12:40:24;;;;;;;7.60;1.50;;;;;;;8.03;64.61;97717.84;2064759;28;20815;-48
2022/12/27 12:42:23;;;;;;;7.28;1.65;;;;;;;9.00;63.80;97716.00;2067357;28;20687;-47
2022/12/27 12:43:46;;;;;;;3.05;1.20;;;;;;;8.89;62.10;97715.38;2057066;28;20206;-47
2022/12/27 12:45:24;;;;;;;3.95;1.20;;;;;;;9.74;61.15;97708.28;2056590;28;20796;-47
2022/12/27 12:46:55;;;;;;;7.43;1.45;;;;;;;10.71;57.80;97715.34;2059030;28;20239;-48
2022/12/27 12:48:14;;;;;;;5.30;1.30;;;;;;;10.56;56.86;97712.28;2058425;28;20210;-48
2022/12/27 12:49:37;;;;;;;5.72;1.13;;;;;;;10.91;54.72;97702.56;2058393;28;20218;-47
2022/12/27 12:50:57;;;;;;;6.50;0.98;;;;;;;11.26;53.91;97703.28;2059320;28;20222;-47
2022/12/27 12:52:27;;;;;;;6.15;1.40;;;;;;;11.55;54.10;97703.25;2059126;28;20238;-48
2022/12/27 12:53:56;;;;;;;5.88;1.17;;;;;;;11.97;54.12;97702.78;2060104;28;20207;-48
2022/12/27 12:55:25;;;;;;;5.97;1.20;;;;;;;11.51;52.78;97699.88;2053654;28;20996;-47
2022/12/27 12:56:57;;;;;;;7.28;1.60;;;;;;;11.23;53.55;97699.88;2056642;28;20206;-48
2022/12/27 12:58:16;;;;;;;8.23;1.13;;;;;;;10.94;54.02;97699.88;2059897;28;20201;-48
2022/12/27 12:59:38;;;;;;;4.85;1.13;;;;;;;11.09;54.24;97700.31;2058481;28;20253;-48
2022/12/27 13:01:13;;;;;;;5.05;1.20;;;;;;;10.50;54.51;97701.13;2060296;28;20229;-48
2022/12/27 13:02:33;;;;;;;4.78;1.52;;;;;;;9.63;57.23;97709.34;2058909;28;20209;-47
2022/12/27 13:03:59;;;;;;;4.63;1.23;;;;;;;10.07;57.06;97696.13;2059892;28;20198;-48
2022/12/27 13:05:16;;;;;;;5.88;1.20;;;;;;;10.07;56.78;97708.31;2060900;28;20722;-48
2022/12/27 13:07:05;;;;;;;3.17;1.10;;;;;;;9.62;57.76;97698.97;2050987;28;20203;-47
2022/12/27 13:08:28;;;;;;;3.42;1.20;;;;;;;9.54;57.84;97698.31;2058264;28;20202;-49
2022/12/27 13:09:39;;;;;;;8.35;1.20;;;;;;;9.49;58.34;97706.22;2058915;28;20193;-47
2022/12/27 13:11:17;;;;;;;3.25;1.10;;;;;;;9.42;58.35;97705.53;2059616;28;20219;-47
2022/12/27 13:12:36;;;;;;;4.93;1.23;;;;;;;9.52;58.62;97693.13;2058581;28;20984;-48
2022/12/27 13:14:16;;;;;;;5.35;1.70;;;;;;;9.58;58.93;97703.41;2061221;28;20205;-47
2022/12/27 13:15:36;;;;;;;12.32;1.48;;;;;;;9.43;59.22;97707.25;2052928;28;20224;-48
2022/12/27 13:16:51;;;;;;;6.00;1.58;;;;;;;9.35;58.79;97701.34;2066332;28;20269;-49
2022/12/27 13:27:28;;;;;;;5.38;1.30;;;;;;;8.81;63.11;97694.69;2101124;27;21068;-50
